sensor_id;sensor_type;location;lat;lon;timestamp;pressure;altitude;pressure_sealevel;temperature;humidity
13367;BME280;6752;52.612;13.630;2023-01-27T00:01:49;101541.05;;;0.40;100.00
13367;BME280;6752;52.612;13.630;2023-01-27T00:06:51;101550.00;;;0.40;100.00
13367;BME280;6752;52.612;13.630;2023-01-27T00:11:53;101549.44;;;0.41;100.00
13367;BME280;6752;52.612;13.630;2023-01-27T00:17:14;101544.44;;;0.42;100.00
13367;BME280;6752;52.612;13.630;2023-01-27T00:22:16;101548.46;;;0.42;100.00
13367;BME280;6752;52.612;13.630;2023-01-27T00:27:36;101545.42;;;0.42;100.00
13367;BME280;6752;52.612;13.630;2023-01-27T00:32:39;101536.37;;;0.48;100.00
13367;BME280;6752;52.612;13.630;2023-01-27T00:37:59;101550.00;;;0.40;100.00
13367;BME280;6752;52.612;13.630;2023-01-27T00:43:01;101555.23;;;0.52;100.00
13367;BME280;6752;52.612;13.630;2023-01-27T00:48:04;101554.11;;;0.44;100.00
13367;BME280;6752;52.612;13.630;2023-01-27T00:53:06;101555.02;;;0.39;100.00
13367;BME280;6752;52.612;13.630;2023-01-27T00:58:09;101563.98;;;0.39;100.00
13367;BME280;6752;52.612;13.630;2023-01-27T01:03:11;101571.46;;;0.40;100.00
13367;BME280;6752;52.612;13.630;2023-01-27T01:08:13;101564.12;;;0.42;100.00
13367;BME280;6752;52.612;13.630;2023-01-27T01:13:16;101570.26;;;0.49;100.00
13367;BME280;6752;52.612;13.630;2023-01-27T01:18:19;101581.27;;;0.40;100.00
13367;BME280;6752;52.612;13.630;2023-01-27T01:23:21;101579.22;;;0.49;100.00
13367;BME280;6752;52.612;13.630;2023-01-27T01:28:24;101578.81;;;0.43;100.00
13367;BME280;6752;52.612;13.630;2023-01-27T01:33:26;101584.17;;;0.43;100.00
13367;BME280;6752;52.612;13.630;2023-01-27T01:38:29;101581.27;;;0.51;100.00
13367;BME280;6752;52.612;13.630;2023-01-27T01:43:36;101586.93;;;0.53;100.00
13367;BME280;6752;52.612;13.630;2023-01-27T01:48:46;101587.02;;;0.57;100.00
13367;BME280;6752;52.612;13.630;2023-01-27T01:53:52;101594.34;;;0.55;100.00
13367;BME280;6752;52.612;13.630;2023-01-27T01:58:52;101590.91;;;0.58;100.00
13367;BME280;6752;52.612;13.630;2023-01-27T02:03:55;101585.11;;;0.58;100.00
13367;BME280;6752;52.612;13.630;2023-01-27T02:08:57;101584.77;;;0.62;100.00
13367;BME280;6752;52.612;13.630;2023-01-27T02:14:00;101573.89;;;0.58;100.00
13367;BME280;6752;52.612;13.630;2023-01-27T02:19:01;101575.05;;;0.66;100.00
13367;BME280;6752;52.612;13.630;2023-01-27T02:24:05;101570.16;;;0.60;100.00
13367;BME280;6752;52.612;13.630;2023-01-27T02:29:08;101574.55;;;0.66;100.00
13367;BME280;6752;52.612;13.630;2023-01-27T02:34:15;101565.87;;;0.68;100.00
13367;BME280;6752;52.612;13.630;2023-01-27T02:39:18;101567.56;;;0.69;100.00
13367;BME280;6752;52.612;13.630;2023-01-27T02:44:20;101576.95;;;0.64;100.00
13367;BME280;6752;52.612;13.630;2023-01-27T02:49:22;101575.30;;;0.58;100.00
13367;BME280;6752;52.612;13.630;2023-01-27T02:54:24;101590.65;;;0.66;100.00
13367;BME280;6752;52.612;13.630;2023-01-27T02:59:26;101595.66;;;0.65;100.00
13367;BME280;6752;52.612;13.630;2023-01-27T03:04:28;101603.41;;;0.58;100.00
13367;BME280;6752;52.612;13.630;2023-01-27T03:09:30;101600.89;;;0.67;100.00
13367;BME280;6752;52.612;13.630;2023-01-27T03:14:33;101596.56;;;0.60;100.00
13367;BME280;6752;52.612;13.630;2023-01-27T03:19:54;101590.72;;;0.65;100.00
13367;BME280;6752;52.612;13.630;2023-01-27T03:24:57;101594.38;;;0.64;100.00
13367;BME280;6752;52.612;13.630;2023-01-27T03:29:59;101591.97;;;0.72;100.00
13367;BME280;6752;52.612;13.630;2023-01-27T03:35:01;101596.03;;;0.71;100.00
13367;BME280;6752;52.612;13.630;2023-01-27T03:40:04;101598.42;;;0.69;100.00
13367;BME280;6752;52.612;13.630;2023-01-27T03:45:24;101606.59;;;0.73;100.00
13367;BME280;6752;52.612;13.630;2023-01-27T03:50:44;101599.39;;;0.74;100.00
13367;BME280;6752;52.612;13.630;2023-01-27T03:55:47;101597.86;;;0.70;100.00
13367;BME280;6752;52.612;13.630;2023-01-27T04:00:53;101599.61;;;0.76;100.00
13367;BME280;6752;52.612;13.630;2023-01-27T04:05:51;101593.97;;;0.79;100.00
13367;BME280;6752;52.612;13.630;2023-01-27T04:11:12;101595.17;;;0.81;100.00
13367;BME280;6752;52.612;13.630;2023-01-27T04:16:32;101589.66;;;0.78;100.00
13367;BME280;6752;52.612;13.630;2023-01-27T04:21:34;101590.92;;;0.78;100.00
13367;BME280;6752;52.612;13.630;2023-01-27T04:26:37;101594.91;;;0.89;100.00
13367;BME280;6752;52.612;13.630;2023-01-27T04:31:39;101595.41;;;0.93;100.00
13367;BME280;6752;52.612;13.630;2023-01-27T04:36:41;101589.45;;;0.85;100.00
13367;BME280;6752;52.612;13.630;2023-01-27T04:41:45;101600.91;;;1.02;100.00
13367;BME280;6752;52.612;13.630;2023-01-27T04:46:57;101608.23;;;0.95;100.00
13367;BME280;6752;52.612;13.630;2023-01-27T04:51:49;101604.21;;;0.95;100.00
13367;BME280;6752;52.612;13.630;2023-01-27T04:56:56;101610.85;;;0.96;100.00
13367;BME280;6752;52.612;13.630;2023-01-27T05:01:58;101611.51;;;1.03;100.00
13367;BME280;6752;52.612;13.630;2023-01-27T05:07:01;101618.00;;;1.01;100.00
13367;BME280;6752;52.612;13.630;2023-01-27T05:12:03;101617.63;;;0.95;100.00
13367;BME280;6752;52.612;13.630;2023-01-27T05:17:05;101627.06;;;1.10;100.00
13367;BME280;6752;52.612;13.630;2023-01-27T05:22:08;101635.82;;;1.07;100.00
13367;BME280;6752;52.612;13.630;2023-01-27T05:27:10;101638.42;;;1.03;100.00
13367;BME280;6752;52.612;13.630;2023-01-27T05:32:12;101648.88;;;1.01;100.00
13367;BME280;6752;52.612;13.630;2023-01-27T05:37:14;101648.82;;;1.06;100.00
13367;BME280;6752;52.612;13.630;2023-01-27T05:42:17;101641.55;;;1.08;100.00
13367;BME280;6752;52.612;13.630;2023-01-27T05:47:19;101642.47;;;1.12;100.00
13367;BME280;6752;52.612;13.630;2023-01-27T05:52:21;101651.37;;;1.28;100.00
13367;BME280;6752;52.612;13.630;2023-01-27T05:57:24;101651.36;;;1.08;100.00
13367;BME280;6752;52.612;13.630;2023-01-27T06:02:26;101652.77;;;1.02;100.00
13367;BME280;6752;52.612;13.630;2023-01-27T06:07:29;101652.79;;;1.12;100.00
13367;BME280;6752;52.612;13.630;2023-01-27T06:12:31;101647.28;;;1.14;100.00
13367;BME280;6752;52.612;13.630;2023-01-27T06:17:34;101641.48;;;1.13;100.00
13367;BME280;6752;52.612;13.630;2023-01-27T06:22:36;101649.89;;;1.10;100.00
13367;BME280;6752;52.612;13.630;2023-01-27T06:27:38;101652.22;;;1.08;100.00
13367;BME280;6752;52.612;13.630;2023-01-27T06:32:41;101655.33;;;1.09;100.00
13367;BME280;6752;52.612;13.630;2023-01-27T06:37:43;101669.59;;;1.04;100.00
13367;BME280;6752;52.612;13.630;2023-01-27T06:42:45;101676.66;;;1.05;100.00
13367;BME280;6752;52.612;13.630;2023-01-27T06:48:00;101685.42;;;1.07;100.00
13367;BME280;6752;52.612;13.630;2023-01-27T06:53:03;101691.72;;;1.22;100.00
13367;BME280;6752;52.612;13.630;2023-01-27T06:58:05;101691.22;;;1.23;100.00
13367;BME280;6752;52.612;13.630;2023-01-27T07:03:08;101696.83;;;1.30;100.00
13367;BME280;6752;52.612;13.630;2023-01-27T07:08:09;101700.59;;;1.38;100.00
13367;BME280;6752;52.612;13.630;2023-01-27T07:13:12;101707.59;;;1.40;100.00
13367;BME280;6752;52.612;13.630;2023-01-27T07:18:14;101711.20;;;1.40;100.00
13367;BME280;6752;52.612;13.630;2023-01-27T07:23:16;101719.93;;;1.43;100.00
13367;BME280;6752;52.612;13.630;2023-01-27T07:28:19;101726.59;;;1.48;100.00
13367;BME280;6752;52.612;13.630;2023-01-27T07:33:21;101727.86;;;1.49;100.00
13367;BME280;6752;52.612;13.630;2023-01-27T07:38:24;101737.79;;;1.63;100.00
13367;BME280;6752;52.612;13.630;2023-01-27T07:43:26;101732.88;;;1.73;100.00
13367;BME280;6752;52.612;13.630;2023-01-27T07:48:28;101739.27;;;1.81;100.00
13367;BME280;6752;52.612;13.630;2023-01-27T07:53:30;101744.43;;;1.89;100.00
13367;BME280;6752;52.612;13.630;2023-01-27T07:58:33;101742.55;;;1.95;100.00
13367;BME280;6752;52.612;13.630;2023-01-27T08:03:35;101752.53;;;1.98;100.00
13367;BME280;6752;52.612;13.630;2023-01-27T08:08:37;101750.16;;;2.14;100.00
13367;BME280;6752;52.612;13.630;2023-01-27T08:13:40;101751.08;;;2.19;100.00
13367;BME280;6752;52.612;13.630;2023-01-27T08:18:42;101750.80;;;2.22;100.00
13367;BME280;6752;52.612;13.630;2023-01-27T08:23:47;101752.21;;;2.26;100.00
13367;BME280;6752;52.612;13.630;2023-01-27T08:28:50;101760.84;;;2.35;100.00
13367;BME280;6752;52.612;13.630;2023-01-27T08:33:52;101765.25;;;2.45;100.00
13367;BME280;6752;52.612;13.630;2023-01-27T08:38:54;101767.50;;;2.55;100.00
13367;BME280;6752;52.612;13.630;2023-01-27T08:43:56;101766.88;;;2.66;100.00
13367;BME280;6752;52.612;13.630;2023-01-27T08:48:59;101777.14;;;2.72;100.00
13367;BME280;6752;52.612;13.630;2023-01-27T08:54:01;101775.00;;;2.75;100.00
13367;BME280;6752;52.612;13.630;2023-01-27T08:59:03;101776.44;;;2.84;100.00
13367;BME280;6752;52.612;13.630;2023-01-27T09:04:06;101775.64;;;2.88;100.00
13367;BME280;6752;52.612;13.630;2023-01-27T09:09:08;101771.45;;;2.89;100.00
13367;BME280;6752;52.612;13.630;2023-01-27T09:14:10;101783.56;;;2.94;100.00
13367;BME280;6752;52.612;13.630;2023-01-27T09:19:12;101792.33;;;3.01;100.00
13367;BME280;6752;52.612;13.630;2023-01-27T09:24:14;101801.89;;;3.04;100.00
13367;BME280;6752;52.612;13.630;2023-01-27T09:29:17;101798.63;;;3.05;100.00
13367;BME280;6752;52.612;13.630;2023-01-27T09:34:19;101799.41;;;3.07;100.00
13367;BME280;6752;52.612;13.630;2023-01-27T09:39:21;101805.45;;;3.10;100.00
13367;BME280;6752;52.612;13.630;2023-01-27T09:44:45;101805.86;;;3.05;100.00
13367;BME280;6752;52.612;13.630;2023-01-27T09:49:56;101803.59;;;3.15;100.00
13367;BME280;6752;52.612;13.630;2023-01-27T09:54:57;101807.91;;;3.17;100.00
13367;BME280;6752;52.612;13.630;2023-01-27T10:05:44;101808.89;;;3.20;100.00
13367;BME280;6752;52.612;13.630;2023-01-27T10:11:22;101803.48;;;3.25;100.00
13367;BME280;6752;52.612;13.630;2023-01-27T10:16:28;101816.17;;;3.24;100.00
13367;BME280;6752;52.612;13.630;2023-01-27T10:26:41;101815.83;;;3.23;100.00
13367;BME280;6752;52.612;13.630;2023-01-27T10:31:47;101813.48;;;3.34;100.00
13367;BME280;6752;52.612;13.630;2023-01-27T10:36:55;101814.01;;;3.42;100.00
13367;BME280;6752;52.612;13.630;2023-01-27T10:42:06;101818.20;;;3.41;100.00
13367;BME280;6752;52.612;13.630;2023-01-27T10:52:08;101814.59;;;3.54;100.00
13367;BME280;6752;52.612;13.630;2023-01-27T10:57:18;101813.47;;;3.57;100.00
13367;BME280;6752;52.612;13.630;2023-01-27T11:02:39;101819.71;;;3.71;100.00
13367;BME280;6752;52.612;13.630;2023-01-27T11:07:49;101817.77;;;3.77;100.00
13367;BME280;6752;52.612;13.630;2023-01-27T11:12:50;101819.42;;;3.79;100.00
13367;BME280;6752;52.612;13.630;2023-01-27T11:18:04;101819.11;;;3.77;100.00
13367;BME280;6752;52.612;13.630;2023-01-27T11:28:16;101814.84;;;3.84;100.00
13367;BME280;6752;52.612;13.630;2023-01-27T11:38:43;101806.80;;;4.02;100.00
13367;BME280;6752;52.612;13.630;2023-01-27T11:43:46;101807.16;;;3.98;100.00
13367;BME280;6752;52.612;13.630;2023-01-27T11:48:54;101804.19;;;3.97;100.00
13367;BME280;6752;52.612;13.630;2023-01-27T11:54:03;101795.67;;;4.10;100.00
13367;BME280;6752;52.612;13.630;2023-01-27T11:59:05;101793.55;;;4.09;100.00
13367;BME280;6752;52.612;13.630;2023-01-27T12:04:21;101797.17;;;4.09;100.00
13367;BME280;6752;52.612;13.630;2023-01-27T12:09:37;101800.70;;;3.87;100.00
13367;BME280;6752;52.612;13.630;2023-01-27T12:14:48;101809.27;;;3.91;100.00
13367;BME280;6752;52.612;13.630;2023-01-27T12:19:46;101804.62;;;3.83;100.00
13367;BME280;6752;52.612;13.630;2023-01-27T12:24:49;101796.84;;;3.75;100.00
13367;BME280;6752;52.612;13.630;2023-01-27T12:29:52;101797.56;;;3.73;100.00
13367;BME280;6752;52.612;13.630;2023-01-27T12:34:54;101798.22;;;3.57;100.00
13367;BME280;6752;52.612;13.630;2023-01-27T12:40:14;101800.12;;;3.60;100.00
13367;BME280;6752;52.612;13.630;2023-01-27T12:45:16;101791.98;;;3.56;100.00
13367;BME280;6752;52.612;13.630;2023-01-27T12:50:22;101803.45;;;3.53;100.00
13367;BME280;6752;52.612;13.630;2023-01-27T12:55:27;101798.71;;;3.51;100.00
13367;BME280;6752;52.612;13.630;2023-01-27T13:00:29;101801.33;;;3.52;100.00
13367;BME280;6752;52.612;13.630;2023-01-27T13:05:35;101805.77;;;3.44;100.00
13367;BME280;6752;52.612;13.630;2023-01-27T13:10:36;101803.47;;;3.35;100.00
13367;BME280;6752;52.612;13.630;2023-01-27T13:15:39;101808.22;;;3.37;100.00
13367;BME280;6752;52.612;13.630;2023-01-27T13:20:42;101806.80;;;3.38;100.00
13367;BME280;6752;52.612;13.630;2023-01-27T13:31:09;101799.33;;;3.41;100.00
13367;BME280;6752;52.612;13.630;2023-01-27T13:36:21;101806.72;;;3.38;100.00
13367;BME280;6752;52.612;13.630;2023-01-27T13:46:44;101806.75;;;3.47;100.00
13367;BME280;6752;52.612;13.630;2023-01-27T13:51:47;101804.30;;;3.54;100.00
13367;BME280;6752;52.612;13.630;2023-01-27T13:57:01;101805.94;;;3.61;100.00
13367;BME280;6752;52.612;13.630;2023-01-27T14:02:35;101805.26;;;3.67;100.00
13367;BME280;6752;52.612;13.630;2023-01-27T14:07:39;101813.33;;;3.59;100.00
13367;BME280;6752;52.612;13.630;2023-01-27T14:12:47;101818.59;;;3.55;100.00
13367;BME280;6752;52.612;13.630;2023-01-27T14:23:09;101829.42;;;3.59;100.00
13367;BME280;6752;52.612;13.630;2023-01-27T14:28:33;101827.88;;;3.57;100.00
13367;BME280;6752;52.612;13.630;2023-01-27T14:33:44;101831.64;;;3.55;100.00
13367;BME280;6752;52.612;13.630;2023-01-27T14:38:47;101837.79;;;3.61;100.00
13367;BME280;6752;52.612;13.630;2023-01-27T14:43:56;101836.81;;;3.57;100.00
13367;BME280;6752;52.612;13.630;2023-01-27T14:49:21;101837.10;;;3.49;100.00
13367;BME280;6752;52.612;13.630;2023-01-27T15:00:02;101845.48;;;3.70;100.00
13367;BME280;6752;52.612;13.630;2023-01-27T15:10:25;101850.87;;;3.46;100.00
13367;BME280;6752;52.612;13.630;2023-01-27T15:15:31;101856.77;;;3.46;100.00
13367;BME280;6752;52.612;13.630;2023-01-27T15:25:50;101865.75;;;3.32;100.00
13367;BME280;6752;52.612;13.630;2023-01-27T15:41:32;101880.62;;;3.31;100.00
13367;BME280;6752;52.612;13.630;2023-01-27T15:46:35;101876.95;;;3.22;100.00
13367;BME280;6752;52.612;13.630;2023-01-27T15:51:37;101897.44;;;3.24;100.00
13367;BME280;6752;52.612;13.630;2023-01-27T15:56:51;101899.07;;;3.26;100.00
13367;BME280;6752;52.612;13.630;2023-01-27T16:02:13;101906.66;;;3.22;100.00
13367;BME280;6752;52.612;13.630;2023-01-27T16:07:28;101904.82;;;3.22;100.00
13367;BME280;6752;52.612;13.630;2023-01-27T16:12:41;101910.85;;;3.20;100.00
13367;BME280;6752;52.612;13.630;2023-01-27T16:18:17;101921.06;;;3.21;100.00
13367;BME280;6752;52.612;13.630;2023-01-27T16:23:10;101923.06;;;3.15;100.00
13367;BME280;6752;52.612;13.630;2023-01-27T16:28:19;101922.14;;;3.10;100.00
13367;BME280;6752;52.612;13.630;2023-01-27T16:33:43;101925.33;;;3.14;100.00
13367;BME280;6752;52.612;13.630;2023-01-27T16:38:42;101926.83;;;3.08;100.00
13367;BME280;6752;52.612;13.630;2023-01-27T16:43:54;101934.03;;;3.03;100.00
13367;BME280;6752;52.612;13.630;2023-01-27T16:48:55;101938.64;;;3.01;100.00
13367;BME280;6752;52.612;13.630;2023-01-27T16:53:58;101946.30;;;3.06;100.00
13367;BME280;6752;52.612;13.630;2023-01-27T16:59:04;101943.88;;;3.03;100.00
13367;BME280;6752;52.612;13.630;2023-01-27T17:04:05;101944.45;;;3.02;100.00
13367;BME280;6752;52.612;13.630;2023-01-27T17:09:17;101953.53;;;2.91;100.00
13367;BME280;6752;52.612;13.630;2023-01-27T17:14:13;101952.25;;;2.85;100.00
13367;BME280;6752;52.612;13.630;2023-01-27T17:19:29;101955.83;;;2.66;100.00
13367;BME280;6752;52.612;13.630;2023-01-27T17:24:37;101951.65;;;2.43;100.00
13367;BME280;6752;52.612;13.630;2023-01-27T17:29:39;101958.39;;;2.32;100.00
13367;BME280;6752;52.612;13.630;2023-01-27T17:34:41;101958.16;;;2.40;100.00
13367;BME280;6752;52.612;13.630;2023-01-27T17:39:44;101957.52;;;2.22;100.00
13367;BME280;6752;52.612;13.630;2023-01-27T17:44:46;101960.47;;;2.14;100.00
13367;BME280;6752;52.612;13.630;2023-01-27T17:49:49;101969.33;;;2.05;100.00
13367;BME280;6752;52.612;13.630;2023-01-27T17:54:51;101977.58;;;1.98;100.00
13367;BME280;6752;52.612;13.630;2023-01-27T18:00:04;101978.14;;;1.96;100.00
13367;BME280;6752;52.612;13.630;2023-01-27T18:05:19;101987.17;;;1.91;100.00
13367;BME280;6752;52.612;13.630;2023-01-27T18:15:41;101993.50;;;1.74;100.00
13367;BME280;6752;52.612;13.630;2023-01-27T18:20:42;102001.43;;;1.76;100.00
13367;BME280;6752;52.612;13.630;2023-01-27T18:25:45;102007.14;;;1.72;100.00
13367;BME280;6752;52.612;13.630;2023-01-27T18:30:48;102008.84;;;1.73;100.00
13367;BME280;6752;52.612;13.630;2023-01-27T18:35:56;102019.86;;;1.70;100.00
13367;BME280;6752;52.612;13.630;2023-01-27T18:41:08;102022.03;;;1.66;100.00
13367;BME280;6752;52.612;13.630;2023-01-27T18:46:09;102024.79;;;1.59;100.00
13367;BME280;6752;52.612;13.630;2023-01-27T18:51:15;102031.14;;;1.58;100.00
13367;BME280;6752;52.612;13.630;2023-01-27T18:56:17;102033.24;;;1.55;100.00
13367;BME280;6752;52.612;13.630;2023-01-27T19:01:20;102034.13;;;1.60;100.00
13367;BME280;6752;52.612;13.630;2023-01-27T19:06:22;102038.12;;;1.55;100.00
13367;BME280;6752;52.612;13.630;2023-01-27T19:11:24;102040.03;;;1.54;100.00
13367;BME280;6752;52.612;13.630;2023-01-27T19:16:27;102044.52;;;1.49;100.00
13367;BME280;6752;52.612;13.630;2023-01-27T19:21:29;102039.93;;;1.50;100.00
13367;BME280;6752;52.612;13.630;2023-01-27T19:26:31;102049.59;;;1.41;100.00
13367;BME280;6752;52.612;13.630;2023-01-27T19:31:33;102049.88;;;1.33;100.00
13367;BME280;6752;52.612;13.630;2023-01-27T19:36:42;102054.27;;;1.34;100.00
13367;BME280;6752;52.612;13.630;2023-01-27T19:41:44;102055.97;;;1.35;100.00
13367;BME280;6752;52.612;13.630;2023-01-27T19:46:46;102058.28;;;1.23;100.00
13367;BME280;6752;52.612;13.630;2023-01-27T19:51:49;102058.83;;;1.16;100.00
13367;BME280;6752;52.612;13.630;2023-01-27T19:56:51;102065.08;;;1.11;100.00
13367;BME280;6752;52.612;13.630;2023-01-27T20:01:53;102058.34;;;1.17;100.00
13367;BME280;6752;52.612;13.630;2023-01-27T20:06:56;102071.49;;;1.10;100.00
13367;BME280;6752;52.612;13.630;2023-01-27T20:11:58;102069.06;;;1.06;100.00
13367;BME280;6752;52.612;13.630;2023-01-27T20:17:00;102074.70;;;0.98;100.00
13367;BME280;6752;52.612;13.630;2023-01-27T20:22:03;102074.20;;;0.93;100.00
13367;BME280;6752;52.612;13.630;2023-01-27T20:27:05;102073.05;;;0.90;100.00
13367;BME280;6752;52.612;13.630;2023-01-27T20:32:08;102084.53;;;0.81;100.00
13367;BME280;6752;52.612;13.630;2023-01-27T20:37:10;102082.88;;;0.68;100.00
13367;BME280;6752;52.612;13.630;2023-01-27T20:42:12;102085.20;;;0.67;100.00
13367;BME280;6752;52.612;13.630;2023-01-27T20:47:15;102095.34;;;0.53;100.00
13367;BME280;6752;52.612;13.630;2023-01-27T20:52:17;102093.56;;;0.58;100.00
13367;BME280;6752;52.612;13.630;2023-01-27T20:57:19;102095.40;;;0.57;100.00
13367;BME280;6752;52.612;13.630;2023-01-27T21:02:22;102090.44;;;0.46;100.00
13367;BME280;6752;52.612;13.630;2023-01-27T21:07:24;102092.39;;;0.39;100.00
13367;BME280;6752;52.612;13.630;2023-01-27T21:12:26;102085.38;;;0.43;100.00
13367;BME280;6752;52.612;13.630;2023-01-27T21:17:29;102090.75;;;0.26;100.00
13367;BME280;6752;52.612;13.630;2023-01-27T21:22:31;102094.06;;;0.23;100.00
13367;BME280;6752;52.612;13.630;2023-01-27T21:27:34;102094.00;;;0.13;100.00
13367;BME280;6752;52.612;13.630;2023-01-27T21:32:36;102097.71;;;0.11;100.00
13367;BME280;6752;52.612;13.630;2023-01-27T21:37:38;102095.15;;;0.04;100.00
13367;BME280;6752;52.612;13.630;2023-01-27T21:42:41;102093.94;;;-0.10;100.00
13367;BME280;6752;52.612;13.630;2023-01-27T21:48:01;102098.87;;;-0.10;100.00
13367;BME280;6752;52.612;13.630;2023-01-27T21:53:07;102087.90;;;-0.12;100.00
13367;BME280;6752;52.612;13.630;2023-01-27T21:58:09;102095.31;;;-0.22;100.00
13367;BME280;6752;52.612;13.630;2023-01-27T22:03:11;102087.77;;;-0.28;100.00
13367;BME280;6752;52.612;13.630;2023-01-27T22:08:14;102088.75;;;-0.29;100.00
13367;BME280;6752;52.612;13.630;2023-01-27T22:13:16;102089.39;;;-0.38;100.00
13367;BME280;6752;52.612;13.630;2023-01-27T22:18:23;102092.17;;;-0.45;100.00
13367;BME280;6752;52.612;13.630;2023-01-27T22:23:25;102094.23;;;-0.55;100.00
13367;BME280;6752;52.612;13.630;2023-01-27T22:28:28;102085.04;;;-0.57;100.00
13367;BME280;6752;52.612;13.630;2023-01-27T22:33:30;102086.19;;;-0.60;100.00
13367;BME280;6752;52.612;13.630;2023-01-27T22:38:35;102083.20;;;-0.62;100.00
13367;BME280;6752;52.612;13.630;2023-01-27T22:43:35;102077.78;;;-0.62;100.00
13367;BME280;6752;52.612;13.630;2023-01-27T22:48:37;102082.17;;;-0.60;100.00
13367;BME280;6752;52.612;13.630;2023-01-27T22:53:40;102083.12;;;-0.68;100.00
13367;BME280;6752;52.612;13.630;2023-01-27T22:58:42;102083.66;;;-0.75;100.00
13367;BME280;6752;52.612;13.630;2023-01-27T23:03:44;102080.79;;;-0.78;100.00
13367;BME280;6752;52.612;13.630;2023-01-27T23:08:47;102072.92;;;-0.80;100.00
13367;BME280;6752;52.612;13.630;2023-01-27T23:13:49;102069.48;;;-0.76;100.00
13367;BME280;6752;52.612;13.630;2023-01-27T23:18:52;102069.11;;;-0.77;100.00
13367;BME280;6752;52.612;13.630;2023-01-27T23:23:54;102064.10;;;-0.82;100.00
13367;BME280;6752;52.612;13.630;2023-01-27T23:28:56;102050.98;;;-0.91;100.00
13367;BME280;6752;52.612;13.630;2023-01-27T23:33:59;102059.02;;;-0.97;100.00
13367;BME280;6752;52.612;13.630;2023-01-27T23:39:01;102054.14;;;-0.98;100.00
13367;BME280;6752;52.612;13.630;2023-01-27T23:44:03;102056.22;;;-1.08;100.00
13367;BME280;6752;52.612;13.630;2023-01-27T23:49:06;102064.05;;;-1.11;100.00
13367;BME280;6752;52.612;13.630;2023-01-27T23:54:08;102050.78;;;-1.13;100.00
13367;BME280;6752;52.612;13.630;2023-01-27T23:59:11;102055.56;;;-1.23;100.00
